Historyczne dane pomiarowe

Dodano dane terminowe – wersja testowa.

Dane z okresu 1951-2019

Wersja bazy: 1.34 [2019-03-16, lista zmian], aktualizacja planowana na 2019-04-15

Dane meteo z obszaru Polski uzyskane na podstawie danych udostępnionych przez Instytut Meteorologii i Gospodarki Wodnej – Państwowy Instytut Badawczy.

 

Wybierz Datę:    

       

TemperaturaWilgotnośćWiatrCiśnienieOpadyŚniegCzas trwania zjawisk
 Stacja t tx tn tng RH VA  wxwx mslp ppp RRR   cm mm wxwxwxwxwxwxwx
1994-08-14 12.5 16.8 8.7 7.8-- 5.0 8.3---- 3.5------------
1994-08-13 15.1 17.5 12.3 11.7-- 4.7 6.0---- 3.6------------
1994-08-12 17.9 21.5 14.5 12.8-- 6.7 1.3---- 10.2------------
1994-08-11 18.9 26.3 15.1 14.9-- 8.0 2.3---- 7.2------------
1994-08-10 21.9 28.4 11.9 8.8-- 1.0 0.3---- 0.0------------
1994-08-09 22.5 27.4 15.9 14.6-- 4.7 1.0---- 0.0------------
1994-08-08 22.2 26.7 16.4 15.4-- 2.7 1.0---- 0.0------------
1994-08-07 23.7 28.4 16.9 12.8-- 2.3 2.3---- 0.0------------
1994-08-06 24.6 30.2 16.4 15.7-- 3.3 3.0---- 0.0------------
1994-08-05 25.2 34.1 12.9 9.5-- 1.0 0.7---- 0.0------------
1994-08-04 23.3 30.0 11.9 8.8-- 1.0 2.3---- 0.0------------
1994-08-03 24.6 28.7 19.4 15.4-- 1.3 2.0---- 0.0------------
1994-08-02 26.6 34.2 19.5 16.7-- 2.7 2.3---- 0.0------------
1994-08-01 30.7 37.4 19.4 15.8-- 1.3 2.0---- 0.0------------
1994-07-31 26.5 37.9 17.4 13.9-- 1.3 2.3---- 0.0------------
1994-07-30 28.1 36.4 18.1 15.4-- 2.0 1.7---- 0.0------------
1994-07-29 27.5 36.0 16.4 12.3-- 2.7 1.7---- 0.0------------
1994-07-28 27.8 35.0 18.7 14.9-- 1.3 1.3---- 0.0------------
1994-07-27 26.7 33.3 19.3 17.5-- 3.3 2.0---- 0.0------------
1994-07-26 26.2 33.4 15.9 13.1-- 5.3 0.0---- 0.0------------
1994-07-25 25.4 34.1 12.9 9.3-- 2.0 1.3---- 0.0------------
1994-07-24 25.1 32.0 13.5 10.3-- 1.3 2.0---- 0.0------------
1994-07-23 24.4 31.0 11.3 8.3-- 1.0 0.7---- 0.0------------
1994-07-22 22.9 30.0 11.9 8.7-- 1.0 1.0---- 0.0------------
1994-07-21 21.2 28.5 8.9 5.5-- 1.0 0.7---- 0.0------------
1994-07-20 19.0 24.9 8.7 5.3-- 1.0 2.0---- 0.0------------
1994-07-19 18.7 23.5 10.7 8.3-- 2.3 2.7---- 0.0------------
1994-07-18 19.6 24.3 12.4 11.3-- 4.3 2.3---- 1.2------------
1994-07-17 22.2 26.9 14.1 11.3-- 4.0 1.7---- 0.0------------
1994-07-16 22.3 26.3 17.4 17.0-- 4.7 2.3---- 0.0------------
1994-07-15 23.8 32.0 16.4 14.4-- 3.0 1.3---- 0.3------------
1994-07-14 24.7 31.5 12.9 11.3-- 1.0 2.0---- 0.0------------
1994-07-13 24.4 29.8 14.1 11.8-- 1.0 1.7---- 0.0------------
1994-07-12 22.8 28.4 14.1 11.3-- 1.7 2.0---- 0.0------------
1994-07-11 22.3 27.8 13.1 11.3-- 1.0 1.3---- 0.0------------
1994-07-10 19.7 25.5 12.4 11.0-- 1.7 3.7---- 0.0------------
1994-07-09 18.0 22.9 12.4 11.8-- 2.7 4.0---- 0.0------------
1994-07-08 14.4 16.1 11.3 10.5-- 8.0 5.7---- 9.7------------
1994-07-07 17.7 24.9 10.4 9.5-- 4.0 2.7---- 23.4------------
1994-07-06 20.9 25.7 12.9 9.9-- 2.0 1.7---- 0.0------------
1994-07-05 17.6 25.5 13.9 12.8-- 6.7 1.7---- 2.0------------
1994-07-04 22.5 29.5 11.9 10.8-- 2.3 2.7---- 0.0------------
1994-07-03 21.4 28.5 10.9 8.3-- 1.0 3.0---- 0.0------------
1994-07-02 19.4 25.9 8.9 7.3-- 1.0 2.0---- 0.0------------
1994-07-01 18.6 23.1 9.9 7.8-- 1.0 2.0---- 0.0------------
1994-06-30 19.3 25.7 15.5 14.4-- 5.3 2.3---- 0.0------------
1994-06-29 26.2 34.6 17.1 15.9-- 3.3 1.7---- 20.1------------
1994-06-28 24.0 30.5 14.9 13.9-- 1.0 2.0---- 0.0------------
1994-06-27 24.7 30.2 15.9 14.4-- 2.0 2.0---- 0.0------------
1994-06-26 24.8 31.2 10.1 7.1-- 1.3 1.3---- 0.0------------
1994-06-25 18.5 25.9 9.3 2.9-- 1.0 2.3---- 0.0------------
1994-06-24 15.2 21.4 5.9 3.4-- 1.0 3.3---- 0.0------------
1994-06-23 16.3 21.3 10.5 9.8-- 1.0 6.0---- 0.0------------
1994-06-22 20.2 23.7 15.1 14.4-- 6.3 4.3---- 0.0------------
1994-06-21 16.5 22.9 6.1 4.3-- 3.0 1.7---- 0.0------------
1994-06-20 17.0 21.4 12.1 11.5-- 1.7 5.3---- 0.0------------
1994-06-19 16.9 22.1 10.9 9.9-- 6.0 4.3---- 0.0------------
1994-06-18 12.3 19.3 3.4 1.9-- 7.3 3.0---- 5.2------------
1994-06-17 11.5 13.9 5.9 4.8-- 2.0 4.3---- 0.0------------
1994-06-16 11.8 15.5 8.4 7.3-- 7.7 6.3---- 0.2------------
375.7 ms

 

Źródłem pochodzenia danych jest Instytut Meteorologii i Gospodarki Wodnej – Państwowy Instytut Badawczy. Dane Instytutu Meteorologii i Gospodarki Wodnej – Państwowego Instytutu Badawczego zostały przetworzone.

Dane źródłowe można odnaleźć na stronie https://dane.imgw.pl